createdAt,value
2023-02-22T00:01:47.498Z,7.78
2023-02-22T00:04:15.944Z,7.93
2023-02-22T00:06:42.612Z,7.75
2023-02-22T00:09:10.324Z,7.32
2023-02-22T00:11:38.473Z,7.78
2023-02-22T00:14:05.566Z,7.94
2023-02-22T00:16:32.215Z,7.76
2023-02-22T00:18:58.934Z,7.79
2023-02-22T00:21:25.542Z,7.41
2023-02-22T00:23:54.641Z,7.49
2023-02-22T00:26:23.327Z,7.65
2023-02-22T00:28:54.446Z,7.62
2023-02-22T00:31:21.804Z,7.60
2023-02-22T00:33:49.406Z,7.80
2023-02-22T00:36:17.370Z,7.83
2023-02-22T00:38:43.925Z,7.70
2023-02-22T00:41:11.753Z,7.68
2023-02-22T00:43:38.341Z,7.60
2023-02-22T00:46:05.210Z,7.22
2023-02-22T00:48:31.820Z,7.29
2023-02-22T00:50:58.425Z,7.80
2023-02-22T00:53:26.435Z,7.27
2023-02-22T00:55:53.895Z,7.66
2023-02-22T00:58:22.007Z,7.31
2023-02-22T01:00:50.105Z,7.68
2023-02-22T01:03:19.348Z,7.65
2023-02-22T01:05:46.619Z,7.60
2023-02-22T01:08:15.902Z,7.78
2023-02-22T01:10:43.401Z,7.66
2023-02-22T01:13:12.846Z,7.74
2023-02-22T01:15:43.068Z,7.65
2023-02-22T01:18:10.195Z,7.27
2023-02-22T01:20:37.100Z,7.20
2023-02-22T01:23:06.990Z,7.73
2023-02-22T01:25:35.273Z,7.58
2023-02-22T01:28:03.639Z,7.16
2023-02-22T01:30:35.886Z,7.54
2023-02-22T01:33:05.118Z,7.62
2023-02-22T01:35:35.368Z,7.19
2023-02-22T01:38:02.060Z,6.99
2023-02-22T01:40:34.453Z,7.45
2023-02-22T01:43:30.378Z,7.59
2023-02-22T01:46:04.496Z,7.58
2023-02-22T01:48:40.938Z,7.30
2023-02-22T01:51:20.832Z,7.34
2023-02-22T01:54:01.418Z,7.63
2023-02-22T01:56:30.757Z,7.48
2023-02-22T01:59:00.969Z,7.51
2023-02-22T02:01:29.384Z,7.07
2023-02-22T02:03:59.761Z,7.06
2023-02-22T02:06:29.242Z,7.34
2023-02-22T02:09:02.731Z,7.52
2023-02-22T02:11:29.593Z,7.22
2023-02-22T02:14:00.056Z,7.45
2023-02-22T02:16:44.490Z,7.38
2023-02-22T02:19:24.224Z,7.24
2023-02-22T02:22:07.939Z,7.34
2023-02-22T02:25:05.034Z,7.21
2023-02-22T02:27:45.374Z,6.99
2023-02-22T02:30:19.474Z,7.07
2023-02-22T02:32:53.841Z,7.11
2023-02-22T02:35:50.159Z,6.98
2023-02-22T02:38:31.844Z,6.72
2023-02-22T02:41:08.901Z,6.85
2023-02-22T02:43:59.216Z,6.82
2023-02-22T02:46:36.685Z,6.58
2023-02-22T02:49:11.170Z,6.24
2023-02-22T02:51:41.952Z,6.59
2023-02-22T02:54:11.366Z,6.52
2023-02-22T02:56:37.972Z,6.42
2023-02-22T02:59:25.240Z,5.92
2023-02-22T03:02:11.562Z,6.44
2023-02-22T03:04:42.488Z,6.53
2023-02-22T03:07:25.448Z,6.45
2023-02-22T03:10:25.469Z,6.40
2023-02-22T03:12:58.476Z,6.38
2023-02-22T03:15:49.584Z,6.35
2023-02-22T03:18:30.851Z,6.37
2023-02-22T03:21:19.477Z,6.40
2023-02-22T03:23:56.132Z,6.26
2023-02-22T03:26:31.296Z,6.36
2023-02-22T03:29:05.041Z,6.30
2023-02-22T03:31:37.756Z,6.28
2023-02-22T03:34:14.160Z,6.46
2023-02-22T03:36:49.942Z,5.81
2023-02-22T03:39:19.086Z,6.25
2023-02-22T03:41:51.404Z,5.92
2023-02-22T03:44:27.362Z,5.88
2023-02-22T03:46:57.747Z,6.50
2023-02-22T03:49:51.195Z,5.71
2023-02-22T03:52:19.856Z,6.39
2023-02-22T03:54:46.484Z,6.34
2023-02-22T03:57:25.425Z,6.41
2023-02-22T04:00:07.169Z,5.92
2023-02-22T04:02:40.497Z,6.31
2023-02-22T04:05:10.583Z,6.45
2023-02-22T04:07:37.401Z,6.36
2023-02-22T04:10:04.591Z,6.28
2023-02-22T04:12:31.211Z,6.32
2023-02-22T04:15:03.654Z,6.11
2023-02-22T04:17:30.375Z,6.28
2023-02-22T04:19:58.221Z,6.42
2023-02-22T04:22:27.701Z,6.21
2023-02-22T04:24:54.451Z,6.41
2023-02-22T04:27:21.411Z,6.39
2023-02-22T04:29:48.469Z,6.27
2023-02-22T04:32:16.077Z,5.92
2023-02-22T04:34:42.759Z,6.23
2023-02-22T04:37:10.433Z,6.30
2023-02-22T04:39:37.066Z,6.06
2023-02-22T04:42:04.998Z,6.34
2023-02-22T04:44:32.743Z,6.38
2023-02-22T04:47:00.430Z,6.06
2023-02-22T04:49:28.128Z,6.31
2023-02-22T04:51:56.962Z,5.78
2023-02-22T04:54:32.517Z,6.24
2023-02-22T04:56:59.127Z,6.40
2023-02-22T04:59:26.514Z,6.29
2023-02-22T05:01:56.729Z,5.96
2023-02-22T05:04:23.343Z,6.35
2023-02-22T05:06:50.295Z,6.39
2023-02-22T05:09:16.824Z,5.80
2023-02-22T05:11:43.455Z,6.25
2023-02-22T05:14:10.042Z,6.08
2023-02-22T05:16:36.881Z,6.08
2023-02-22T05:19:03.867Z,6.14
2023-02-22T05:21:30.486Z,6.48
2023-02-22T05:23:57.513Z,6.20
2023-02-22T05:26:24.239Z,6.17
2023-02-22T05:28:50.902Z,5.64
2023-02-22T05:31:18.053Z,6.14
2023-02-22T05:33:44.899Z,5.93
2023-02-22T05:36:11.511Z,6.33
2023-02-22T05:38:43.417Z,6.33
2023-02-22T05:41:12.117Z,5.95
2023-02-22T05:43:40.064Z,5.95
2023-02-22T05:46:06.979Z,6.42
2023-02-22T05:48:33.803Z,6.04
2023-02-22T05:51:00.404Z,6.34
2023-02-22T05:53:27.719Z,6.24
2023-02-22T05:55:54.560Z,6.20
2023-02-22T05:58:21.782Z,6.46
2023-02-22T06:00:48.423Z,6.42
2023-02-22T06:03:15.276Z,6.29
2023-02-22T06:05:42.813Z,6.19
2023-02-22T06:08:10.161Z,6.01
2023-02-22T06:10:36.881Z,5.94
2023-02-22T06:13:05.316Z,6.15
2023-02-22T06:15:32.240Z,6.32
2023-02-22T06:18:00.161Z,6.35
2023-02-22T06:20:28.886Z,6.07
2023-02-22T06:22:57.643Z,6.56
2023-02-22T06:25:27.155Z,6.47
2023-02-22T06:27:53.938Z,6.57
2023-02-22T06:30:22.642Z,6.12
2023-02-22T06:32:49.250Z,6.62
2023-02-22T06:35:16.833Z,6.05
2023-02-22T06:37:43.646Z,6.47
2023-02-22T06:40:11.254Z,5.73
2023-02-22T06:42:38.687Z,6.51
2023-02-22T06:45:05.544Z,6.45
2023-02-22T06:47:32.174Z,6.67
2023-02-22T06:50:03.778Z,6.68
2023-02-22T06:52:30.396Z,6.11
2023-02-22T06:54:56.951Z,6.44
2023-02-22T06:57:23.686Z,6.17
2023-02-22T06:59:50.333Z,6.65
2023-02-22T07:02:16.938Z,6.10
2023-02-22T07:04:45.309Z,6.52
2023-02-22T07:07:11.887Z,6.45
2023-02-22T07:09:38.418Z,6.58
2023-02-22T07:12:05.069Z,6.21
2023-02-22T07:14:31.696Z,6.63
2023-02-22T07:16:58.226Z,6.55
2023-02-22T07:19:24.713Z,6.60
2023-02-22T07:21:55.306Z,6.73
2023-02-22T07:24:21.894Z,6.72
2023-02-22T07:26:48.471Z,6.77
2023-02-22T07:29:14.973Z,6.86
2023-02-22T07:31:41.563Z,6.75
2023-02-22T07:34:08.158Z,6.87
2023-02-22T07:36:34.810Z,6.85
2023-02-22T07:39:01.488Z,6.95
2023-02-22T07:41:28.069Z,7.09
2023-02-22T07:43:54.636Z,6.42
2023-02-22T07:46:21.181Z,7.02
2023-02-22T07:48:47.752Z,7.06
2023-02-22T07:51:17.465Z,6.45
2023-02-22T07:53:46.806Z,6.82
2023-02-22T07:56:13.424Z,7.19
2023-02-22T07:58:40.059Z,7.34
2023-02-22T08:01:06.640Z,7.39
2023-02-22T08:03:36.603Z,7.39
2023-02-22T08:06:05.685Z,7.40
2023-02-22T08:08:32.291Z,7.42
2023-02-22T08:10:58.927Z,7.46
2023-02-22T08:13:25.530Z,6.89
2023-02-22T08:15:53.824Z,7.70
2023-02-22T08:18:21.639Z,7.31
2023-02-22T08:20:50.381Z,7.19
2023-02-22T08:23:18.427Z,7.67
2023-02-22T08:25:45.225Z,7.57
2023-02-22T08:28:15.023Z,7.73
2023-02-22T08:30:45.008Z,7.94
2023-02-22T08:33:15.818Z,7.80
2023-02-22T08:35:42.882Z,7.91
2023-02-22T08:38:17.454Z,7.92
2023-02-22T08:40:44.022Z,8.07
2023-02-22T08:43:10.555Z,8.10
2023-02-22T08:45:37.228Z,8.12
2023-02-22T08:48:04.065Z,7.60
2023-02-22T08:50:35.594Z,7.81
2023-02-22T08:53:04.668Z,7.83
2023-02-22T08:55:34.086Z,8.29
2023-02-22T08:58:03.069Z,8.19
2023-02-22T09:00:33.572Z,8.00
2023-02-22T09:03:01.689Z,8.56
2023-02-22T09:05:31.121Z,8.37
2023-02-22T09:07:58.015Z,8.61
2023-02-22T09:10:27.557Z,8.43
2023-02-22T09:12:58.127Z,8.67
2023-02-22T09:15:25.456Z,8.64
2023-02-22T09:17:53.123Z,8.85
2023-02-22T09:20:21.929Z,9.11
2023-02-22T09:22:49.949Z,9.03
2023-02-22T09:25:18.109Z,9.39
2023-02-22T09:27:48.318Z,9.54
2023-02-22T09:30:19.944Z,9.65
2023-02-22T09:32:46.652Z,9.98
2023-02-22T09:35:13.344Z,9.97
2023-02-22T09:37:39.991Z,10.36
2023-02-22T09:40:10.040Z,10.52
2023-02-22T09:42:53.986Z,10.65
2023-02-22T09:45:27.774Z,10.26
2023-02-22T09:48:08.187Z,10.58
2023-02-22T09:50:46.413Z,10.36
2023-02-22T09:53:21.786Z,10.86
2023-02-22T09:55:52.330Z,10.89
2023-02-22T09:58:24.113Z,10.64
2023-02-22T10:00:59.541Z,11.08
2023-02-22T10:03:51.177Z,11.23
2023-02-22T10:06:23.067Z,11.31
2023-02-22T10:08:56.282Z,11.12
2023-02-22T10:11:48.622Z,11.34
2023-02-22T10:14:33.936Z,11.52
2023-02-22T10:17:30.374Z,11.79
2023-02-22T10:20:21.778Z,12.10
2023-02-22T10:23:00.752Z,12.35
2023-02-22T10:25:34.920Z,12.74
2023-02-22T10:28:19.670Z,12.95
2023-02-22T10:31:02.119Z,13.49
2023-02-22T10:34:03.248Z,13.92
2023-02-22T10:36:29.891Z,14.27
2023-02-22T10:39:10.763Z,14.11
2023-02-22T10:41:44.751Z,14.17
2023-02-22T10:44:11.381Z,14.41
2023-02-22T10:46:40.630Z,14.65
2023-02-22T10:49:07.811Z,14.15
2023-02-22T10:51:35.270Z,14.58
2023-02-22T10:54:28.485Z,14.74
2023-02-22T10:56:56.450Z,14.98
2023-02-22T10:59:34.589Z,15.60
2023-02-22T11:02:08.493Z,15.25
2023-02-22T11:04:49.438Z,15.66
2023-02-22T11:07:22.547Z,16.04
2023-02-22T11:09:52.709Z,16.29
2023-02-22T11:12:33.620Z,16.54
2023-02-22T11:15:32.482Z,16.60
2023-02-22T11:18:01.772Z,16.30
2023-02-22T11:20:38.403Z,16.24
2023-02-22T11:23:05.861Z,16.19
2023-02-22T11:25:36.660Z,16.63
2023-02-22T11:28:08.063Z,16.85
2023-02-22T11:30:36.088Z,16.72
2023-02-22T11:33:26.021Z,17.33
2023-02-22T11:35:58.188Z,17.19
2023-02-22T11:38:30.722Z,17.52
2023-02-22T11:41:15.525Z,17.22
2023-02-22T11:43:47.909Z,17.15
2023-02-22T11:46:14.535Z,17.57
2023-02-22T11:48:54.431Z,17.52
2023-02-22T11:51:35.804Z,18.45
2023-02-22T11:54:25.716Z,18.37
2023-02-22T11:56:55.722Z,17.76
2023-02-22T11:59:22.666Z,18.55
2023-02-22T12:01:55.778Z,19.04
2023-02-22T12:04:54.132Z,19.53
2023-02-22T12:07:23.869Z,19.77
2023-02-22T12:10:09.040Z,19.01
2023-02-22T12:13:00.005Z,19.08
2023-02-22T12:15:27.152Z,19.27
2023-02-22T12:18:09.165Z,18.78
2023-02-22T12:20:57.304Z,19.31
2023-02-22T12:23:44.690Z,19.30
2023-02-22T12:26:16.990Z,19.57
2023-02-22T12:28:47.655Z,19.09
2023-02-22T12:31:25.220Z,18.46
2023-02-22T12:34:01.045Z,17.90
2023-02-22T12:36:36.403Z,17.29
2023-02-22T12:39:16.195Z,16.50
2023-02-22T12:41:48.224Z,16.13
2023-02-22T12:44:20.412Z,16.56
2023-02-22T12:46:55.121Z,16.34
2023-02-22T12:49:49.651Z,16.92
2023-02-22T12:52:41.550Z,16.83
2023-02-22T12:55:21.070Z,16.78
2023-02-22T12:57:57.171Z,17.02
2023-02-22T13:00:35.018Z,16.75
2023-02-22T13:03:26.437Z,16.62
2023-02-22T13:06:06.724Z,16.45
2023-02-22T13:08:51.566Z,16.62
2023-02-22T13:11:32.197Z,16.53
2023-02-22T13:14:30.059Z,15.99
2023-02-22T13:17:30.358Z,16.36
2023-02-22T13:20:08.693Z,16.20
2023-02-22T13:22:35.154Z,16.15
2023-02-22T13:25:19.574Z,15.94
2023-02-22T13:28:10.221Z,15.80
2023-02-22T13:30:41.580Z,15.60
2023-02-22T13:33:17.706Z,15.32
2023-02-22T13:35:55.419Z,15.16
2023-02-22T13:38:53.630Z,14.93
2023-02-22T13:41:39.384Z,14.37
2023-02-22T13:44:20.851Z,14.77
2023-02-22T13:46:53.366Z,14.61
2023-02-22T13:49:27.859Z,14.40
2023-02-22T13:51:58.963Z,14.01
2023-02-22T13:54:48.418Z,13.67
2023-02-22T13:57:39.327Z,13.55
2023-02-22T14:00:14.866Z,13.82
2023-02-22T14:03:15.170Z,13.74
2023-02-22T14:05:42.192Z,13.55
2023-02-22T14:08:18.710Z,13.46
2023-02-22T14:11:07.087Z,12.91
2023-02-22T14:13:55.566Z,13.24
2023-02-22T14:16:26.025Z,13.02
2023-02-22T14:19:06.410Z,13.16
2023-02-22T14:21:35.156Z,13.09
2023-02-22T14:24:14.025Z,12.88
2023-02-22T14:26:53.474Z,13.02
2023-02-22T14:29:21.666Z,12.89
2023-02-22T14:31:49.982Z,12.90
2023-02-22T14:34:18.803Z,12.79
2023-02-22T14:37:09.005Z,12.65
2023-02-22T14:39:51.240Z,12.72
2023-02-22T14:42:27.092Z,12.69
2023-02-22T14:45:05.934Z,12.57
2023-02-22T14:47:38.470Z,12.48
2023-02-22T14:50:13.287Z,12.41
2023-02-22T14:52:42.947Z,12.07
2023-02-22T14:55:22.582Z,12.07
2023-02-22T14:58:10.609Z,11.93
2023-02-22T15:00:46.061Z,11.69
2023-02-22T15:03:25.212Z,11.64
2023-02-22T15:05:51.809Z,10.96
2023-02-22T15:08:27.860Z,10.89
2023-02-22T15:10:54.868Z,10.90
2023-02-22T15:13:27.544Z,10.81
2023-02-22T15:16:07.868Z,10.84
2023-02-22T15:18:40.362Z,11.22
2023-02-22T15:21:13.496Z,10.89
2023-02-22T15:23:54.715Z,10.94
2023-02-22T15:26:52.021Z,11.13
2023-02-22T15:29:39.293Z,10.65
2023-02-22T15:32:29.152Z,10.98
2023-02-22T15:35:05.394Z,10.95
2023-02-22T15:37:32.505Z,10.72
2023-02-22T15:40:14.321Z,10.98
2023-02-22T15:43:02.242Z,10.83
2023-02-22T15:45:29.921Z,10.99
2023-02-22T15:47:58.520Z,10.69
2023-02-22T15:50:33.894Z,11.16
2023-02-22T15:53:07.732Z,11.21
2023-02-22T15:55:36.038Z,10.65
2023-02-22T15:58:22.248Z,11.01
2023-02-22T16:00:58.920Z,11.17
2023-02-22T16:03:28.681Z,11.01
2023-02-22T16:05:57.244Z,11.14
2023-02-22T16:08:29.298Z,11.19
2023-02-22T16:11:13.340Z,10.72
2023-02-22T16:13:42.067Z,11.05
2023-02-22T16:16:20.647Z,11.15
2023-02-22T16:18:47.661Z,11.07
2023-02-22T16:21:17.678Z,11.11
2023-02-22T16:23:55.989Z,10.91
2023-02-22T16:26:27.728Z,11.04
2023-02-22T16:29:05.002Z,11.02
2023-02-22T16:31:37.066Z,10.78
2023-02-22T16:34:06.524Z,10.88
2023-02-22T16:36:45.140Z,10.76
2023-02-22T16:39:35.885Z,10.93
2023-02-22T16:42:10.430Z,10.90
2023-02-22T16:44:37.739Z,10.88
2023-02-22T16:47:04.316Z,10.37
2023-02-22T16:49:30.877Z,10.84
2023-02-22T16:52:01.354Z,10.82
2023-02-22T16:54:36.456Z,10.29
2023-02-22T16:57:04.942Z,10.62
2023-02-22T16:59:36.350Z,10.52
2023-02-22T17:02:07.381Z,10.68
2023-02-22T17:04:36.529Z,10.55
2023-02-22T17:07:05.161Z,10.56
2023-02-22T17:09:32.754Z,9.95
2023-02-22T17:11:59.451Z,10.22
2023-02-22T17:14:31.268Z,10.13
2023-02-22T17:16:58.421Z,10.50
2023-02-22T17:19:25.241Z,9.71
2023-02-22T17:21:52.915Z,10.10
2023-02-22T17:24:23.447Z,10.09
2023-02-22T17:26:52.929Z,10.42
2023-02-22T17:29:24.279Z,10.05
2023-02-22T17:31:52.459Z,10.30
2023-02-22T17:34:19.396Z,10.31
2023-02-22T17:36:46.473Z,10.12
2023-02-22T17:39:13.485Z,10.32
2023-02-22T17:41:40.906Z,10.36
2023-02-22T17:44:07.942Z,9.94
2023-02-22T17:46:36.504Z,10.35
2023-02-22T17:49:03.353Z,9.91
2023-02-22T17:51:30.100Z,9.95
2023-02-22T17:53:56.922Z,10.22
2023-02-22T17:56:23.583Z,10.25
2023-02-22T17:58:53.951Z,10.11
2023-02-22T18:01:32.244Z,10.48
2023-02-22T18:04:01.217Z,10.34
2023-02-22T18:06:30.072Z,10.56
2023-02-22T18:08:59.450Z,10.57
2023-02-22T18:11:28.402Z,10.64
2023-02-22T18:13:57.158Z,10.69
2023-02-22T18:16:27.738Z,10.27
2023-02-22T18:18:56.847Z,10.27
2023-02-22T18:21:23.927Z,10.59
2023-02-22T18:23:50.508Z,10.57
2023-02-22T18:26:19.181Z,10.64
2023-02-22T18:28:48.469Z,10.28
2023-02-22T18:31:17.017Z,10.34
2023-02-22T18:33:44.902Z,10.80
2023-02-22T18:36:13.139Z,10.42
2023-02-22T18:38:44.097Z,10.63
2023-02-22T18:41:13.214Z,10.45
2023-02-22T18:43:40.259Z,10.95
2023-02-22T18:46:16.075Z,10.85
2023-02-22T18:48:43.710Z,10.96
2023-02-22T18:51:14.171Z,10.92
2023-02-22T18:53:46.963Z,10.87
2023-02-22T18:56:17.223Z,10.51
2023-02-22T18:58:44.164Z,10.51
2023-02-22T19:01:17.842Z,10.82
2023-02-22T19:03:47.108Z,10.84
2023-02-22T19:06:14.937Z,10.83
2023-02-22T19:08:42.679Z,10.93
2023-02-22T19:11:17.768Z,10.87
2023-02-22T19:13:49.371Z,10.48
2023-02-22T19:16:21.859Z,10.78
2023-02-22T19:18:49.708Z,10.48
2023-02-22T19:21:16.604Z,10.77
2023-02-22T19:23:47.566Z,10.84
2023-02-22T19:26:24.011Z,10.90
2023-02-22T19:28:53.481Z,10.44
2023-02-22T19:31:21.819Z,10.80
2023-02-22T19:33:52.679Z,10.99
2023-02-22T19:36:22.936Z,10.92
2023-02-22T19:38:49.763Z,10.37
2023-02-22T19:41:20.352Z,10.89
2023-02-22T19:43:48.496Z,10.61
2023-02-22T19:46:17.783Z,10.81
2023-02-22T19:48:50.999Z,10.14
2023-02-22T19:51:19.542Z,10.70
2023-02-22T19:53:47.116Z,10.53
2023-02-22T19:56:42.722Z,10.63
2023-02-22T19:59:13.639Z,10.31
2023-02-22T20:01:44.026Z,10.57
2023-02-22T20:04:17.689Z,10.63
2023-02-22T20:07:20.436Z,10.67
2023-02-22T20:09:53.701Z,10.43
2023-02-22T20:12:21.386Z,10.54
2023-02-22T20:14:47.990Z,9.90
2023-02-22T20:17:14.489Z,10.29
2023-02-22T20:19:42.440Z,10.39
2023-02-22T20:22:12.326Z,10.45
2023-02-22T20:24:39.010Z,10.23
2023-02-22T20:27:05.634Z,9.93
2023-02-22T20:29:32.387Z,10.32
2023-02-22T20:32:00.864Z,10.32
2023-02-22T20:34:32.438Z,10.30
2023-02-22T20:37:00.295Z,10.26
2023-02-22T20:39:27.180Z,10.22
2023-02-22T20:41:54.538Z,9.94
2023-02-22T20:44:21.810Z,9.76
2023-02-22T20:46:49.422Z,9.91
2023-02-22T20:49:18.962Z,9.76
2023-02-22T20:51:46.555Z,10.27
2023-02-22T20:54:13.529Z,10.25
2023-02-22T20:56:41.827Z,10.25
2023-02-22T20:59:11.891Z,9.88
2023-02-22T21:01:38.517Z,9.77
2023-02-22T21:04:07.289Z,10.19
2023-02-22T21:06:36.245Z,9.91
2023-02-22T21:09:07.193Z,10.25
2023-02-22T21:11:33.863Z,10.07
2023-02-22T21:14:01.931Z,9.83
2023-02-22T21:16:35.355Z,10.22
2023-02-22T21:19:04.745Z,10.16
2023-02-22T21:21:31.810Z,9.76
2023-02-22T21:24:02.825Z,9.70
2023-02-22T21:26:33.800Z,9.44
2023-02-22T21:29:06.042Z,9.89
2023-02-22T21:31:34.260Z,10.10
2023-02-22T21:34:01.137Z,10.26
2023-02-22T21:36:28.708Z,10.16
2023-02-22T21:39:00.622Z,9.77
2023-02-22T21:41:29.450Z,10.21
2023-02-22T21:43:57.699Z,10.12
2023-02-22T21:46:25.489Z,9.83
2023-02-22T21:48:52.103Z,10.30
2023-02-22T21:51:32.507Z,9.67
2023-02-22T21:54:08.123Z,9.77
2023-02-22T21:56:39.719Z,9.86
2023-02-22T21:59:11.598Z,9.69
2023-02-22T22:01:47.773Z,9.82
2023-02-22T22:04:18.899Z,10.32
2023-02-22T22:06:47.755Z,10.22
2023-02-22T22:09:21.896Z,10.42
2023-02-22T22:11:50.982Z,9.87
2023-02-22T22:14:19.376Z,9.79
2023-02-22T22:16:48.064Z,9.93
2023-02-22T22:19:15.016Z,9.81
2023-02-22T22:21:41.578Z,10.22
2023-02-22T22:24:10.359Z,10.25
2023-02-22T22:26:37.974Z,10.19
2023-02-22T22:29:05.111Z,10.38
2023-02-22T22:31:32.326Z,9.80
2023-02-22T22:33:59.133Z,10.12
2023-02-22T22:36:27.320Z,10.12
2023-02-22T22:38:57.526Z,10.20
2023-02-22T22:41:27.854Z,10.10
2023-02-22T22:43:54.403Z,9.92
2023-02-22T22:46:22.464Z,10.02
2023-02-22T22:48:49.055Z,9.63
2023-02-22T22:51:21.087Z,10.12
2023-02-22T22:53:49.771Z,9.99
2023-02-22T22:56:26.197Z,9.95
2023-02-22T22:58:58.092Z,10.11
2023-02-22T23:01:27.865Z,10.09
2023-02-22T23:04:01.793Z,10.03
2023-02-22T23:06:34.269Z,9.92
2023-02-22T23:09:11.479Z,9.96
2023-02-22T23:11:44.431Z,9.45
2023-02-22T23:14:19.353Z,9.48
2023-02-22T23:16:50.522Z,9.52
2023-02-22T23:19:19.122Z,9.50
2023-02-22T23:21:50.142Z,9.51
2023-02-22T23:24:21.032Z,9.48
2023-02-22T23:26:48.869Z,9.96
2023-02-22T23:29:20.656Z,9.17
2023-02-22T23:31:48.829Z,9.61
2023-02-22T23:34:21.075Z,9.54
2023-02-22T23:36:48.418Z,9.29
2023-02-22T23:39:18.132Z,9.62
2023-02-22T23:41:44.789Z,9.55
2023-02-22T23:44:17.080Z,9.24
2023-02-22T23:46:47.553Z,9.16
2023-02-22T23:49:19.911Z,9.08
2023-02-22T23:51:47.677Z,9.62
2023-02-22T23:54:19.294Z,9.51
2023-02-22T23:57:05.267Z,9.51
2023-02-22T23:59:33.269Z,9.60
